This is the latest recevied weather packets stored in our database for station/object ZL3GL-4. If no packets are shown the sender has not sent any weather packets the latest 10 day(s).
| Time | Temp. | Humidity | Pressure | Rain* | Wind** | Luminosity | Snow |
|---|---|---|---|---|---|---|---|
| 1788157708 | 43° F | 66% | 751.3 mmHg | 0 in | 15 mph, 238° | - | - |
| 1788156866 | 43° F | 67% | 751.1 mmHg | 0 in | 13 mph, 208° | - | - |
| 1788156021 | 43° F | 65% | 750.9 mmHg | 0 in | 13 mph, 235° | - | - |
| 1788155177 | 44° F | 64% | 750.9 mmHg | 0 in | 12 mph, 208° | - | - |
| 1788154333 | 44° F | 64% | 750.7 mmHg | 0 in | 19 mph, 240° | - | - |
| 1788153491 | 45° F | 62% | 750.3 mmHg | 0 in | 13 mph, 236° | - | - |
| 1788152646 | 46° F | 59% | 749.8 mmHg | 0 in | 19 mph, 240° | - | - |
| 1788151800 | 46° F | 57% | 749.3 mmHg | 0 in | 21 mph, 239° | - | - |
| 1788150957 | 47° F | 58% | 748.7 mmHg | 0 in | 15 mph, 188° | - | - |
| 1788150112 | 47° F | 58% | 748.9 mmHg | 0 in | 17 mph, 205° | - | - |
| 1788149267 | 47° F | 57% | 748.5 mmHg | 0 in | 20 mph, 236° | - | - |
| 1788148424 | 47° F | 60% | 748.2 mmHg | 0.01 in | 19 mph, 183° | - | - |
| 1788147581 | 47° F | 64% | 747.9 mmHg | 0.01 in | 12 mph, 169° | - | - |
| 1788146736 | 46° F | 68% | 747.7 mmHg | 0.01 in | 15 mph, 248° | - | - |
| 1788145898 | 45° F | 77% | 747.4 mmHg | 0.01 in | 9 mph, 248° | - | - |
| 1788145048 | 44° F | 75% | 747.5 mmHg | 0.01 in | 13 mph, 200° | - | - |
| 1788144205 | 46° F | 74% | 747 mmHg | 0 in | 17 mph, 163° | - | - |
| 1788143360 | 49° F | 64% | 747 mmHg | 0 in | 12 mph, 177° | - | - |
| 1788142517 | 51° F | 59% | 746.8 mmHg | 0 in | 12 mph, 160° | - | - |
| 1788141672 | 52° F | 61% | 746.5 mmHg | 0 in | 6 mph, 180° | - | - |
| 1788140827 | 53° F | 60% | 746 mmHg | 0 in | 6 mph, 180° | - | - |
| 1788139983 | 51° F | 65% | 746.1 mmHg | 0 in | 5 mph, 248° | - | - |
| 1788139135 | 51° F | 66% | 745.9 mmHg | 0 in | 9 mph, 180° | - | - |
| 1788138292 | 50° F | 65% | 745.7 mmHg | 0 in | 10 mph, 211° | - | - |
| 1788137446 | 49° F | 67% | 746.2 mmHg | 0 in | 7 mph, 236° | - | - |
* Rain latest hour (hover to see other rain measurements)
** Current wind speed in m/s (hover to see current wind gust speed)